Lincoln City, OR

4:01 PM PST on December 26, 2014 (GMT -0800)
Coronado Shores Beach Club | Change Station
CLOSE
Current Station
Personal Weather Station
Location: Gleneden Beach, OR
Elevation: 72 ft
Nearby Weather Stations

Elev 72 ft 44.87 °N, 124.04 °W | Updated 7 minutes ago

Overcast
Overcast
51.4 °F
Feels Like 51.4 °F
N
0.0
Wind Variable Wind from SW
Gusts 2.0 mph

Today
High -- | Low -- °F
--% Chance of Precip.
Yesterday
High -- | Low -- °F
Precip. -- in
7:52 AM 4:40 PM
Waxing Crescent, 30% visible
Pressure 30.35 in
Visibility 7.0 miles
Clouds Scattered Clouds 1400 ft
Scattered Clouds 4800 ft
Mostly Cloudy 6000 ft
Dew Point 49 °F
Humidity 91%
Rainfall 0.07 in
Snow Depth Not available.
UV 0.0 out of 12
Pollen 1.60 out of 12
Air Quality Not available.
Flu Activity Not available.
METAR KONP 262355Z AUTO 19003KT 7SM SCT014 SCT048 BKN060 10/08 A3035 RMK AO2

More Conditions Fewer Conditions

Pressure 30.35 in
Visibility 7.0 miles
Clouds Scattered Clouds 1400 ft
Scattered Clouds 4800 ft
Mostly Cloudy 6000 ft
Dew Point 49 °F
Humidity 91%
Rainfall 0.07 in
Snow Depth Not available.
UV 0.0 out of 12
Pollen 1.60 out of 12
Air Quality Not available.
Flu Activity Not available.
METAR KONP 262355Z AUTO 19003KT 7SM SCT014 SCT048 BKN060 10/08 A3035 RMK AO2

More Conditions Fewer Conditions

10-Day Weather Forecast

Almanac

Astronomy

Dec. 26, 2014 Rise Set
Actual Time
Civil Twilight
Nautical Twilight
Astronomical Twilight
Moon
Length of Visible Light
Length of Day
Tomorrow will be .
, % of the Moon is Illuminated

Today's Extremes

State Highs State Lows

Community

WunderPhotos

Upload Photos

1,780,792 photos uploaded!

WunderBlogs® & News

Nearby

Air Quality

  Air Quality AQ Index Pollutant
Not available.

Snow Depth

Station Depth Elevation

Earthquake Activity

City Distance Mag. Time & Date
Minimum magnitude displayed is 2.5.

Coastal Water Temperatures

Place Temperature

Nearby Weather Stations